sensor_id;sensor_type;location;lat;lon;timestamp;temperature;humidity
1996;DHT22;38556;47.068;15.408;2023-05-10T00:01:20;12.30;99.90
1996;DHT22;38556;47.068;15.408;2023-05-10T00:03:47;12.30;99.90
1996;DHT22;38556;47.068;15.408;2023-05-10T00:06:15;12.30;99.90
1996;DHT22;38556;47.068;15.408;2023-05-10T00:08:44;12.40;99.90
1996;DHT22;38556;47.068;15.408;2023-05-10T00:11:12;12.40;99.90
1996;DHT22;38556;47.068;15.408;2023-05-10T00:13:39;12.40;99.90
1996;DHT22;38556;47.068;15.408;2023-05-10T00:16:07;12.40;99.90
1996;DHT22;38556;47.068;15.408;2023-05-10T00:18:34;12.20;99.90
1996;DHT22;38556;47.068;15.408;2023-05-10T00:21:01;12.10;99.90
1996;DHT22;38556;47.068;15.408;2023-05-10T00:23:28;12.10;99.90
1996;DHT22;38556;47.068;15.408;2023-05-10T00:25:57;12.10;99.90
1996;DHT22;38556;47.068;15.408;2023-05-10T00:28:24;12.10;99.90
1996;DHT22;38556;47.068;15.408;2023-05-10T00:30:52;12.10;99.90
1996;DHT22;38556;47.068;15.408;2023-05-10T00:33:19;12.10;99.90
1996;DHT22;38556;47.068;15.408;2023-05-10T00:35:46;12.10;99.90
1996;DHT22;38556;47.068;15.408;2023-05-10T00:38:13;12.10;99.90
1996;DHT22;38556;47.068;15.408;2023-05-10T00:40:41;12.10;99.90
1996;DHT22;38556;47.068;15.408;2023-05-10T00:43:11;12.00;99.90
1996;DHT22;38556;47.068;15.408;2023-05-10T00:45:40;11.90;99.90
1996;DHT22;38556;47.068;15.408;2023-05-10T00:48:07;11.90;99.90
1996;DHT22;38556;47.068;15.408;2023-05-10T00:50:35;11.90;99.90
1996;DHT22;38556;47.068;15.408;2023-05-10T00:53:03;11.70;99.90
1996;DHT22;38556;47.068;15.408;2023-05-10T00:55:30;11.70;99.90
1996;DHT22;38556;47.068;15.408;2023-05-10T00:57:58;11.70;99.90
1996;DHT22;38556;47.068;15.408;2023-05-10T01:00:26;11.80;99.90
1996;DHT22;38556;47.068;15.408;2023-05-10T01:02:54;11.70;99.90
1996;DHT22;38556;47.068;15.408;2023-05-10T01:05:21;11.60;99.90
1996;DHT22;38556;47.068;15.408;2023-05-10T01:07:49;11.70;99.90
1996;DHT22;38556;47.068;15.408;2023-05-10T01:10:16;11.60;99.90
1996;DHT22;38556;47.068;15.408;2023-05-10T01:12:46;11.70;99.90
1996;DHT22;38556;47.068;15.408;2023-05-10T01:15:14;11.60;99.90
1996;DHT22;38556;47.068;15.408;2023-05-10T01:17:45;11.50;99.90
1996;DHT22;38556;47.068;15.408;2023-05-10T01:20:14;11.30;99.90
1996;DHT22;38556;47.068;15.408;2023-05-10T01:23:07;11.30;99.90
1996;DHT22;38556;47.068;15.408;2023-05-10T01:28:47;11.20;99.90
1996;DHT22;38556;47.068;15.408;2023-05-10T01:31:31;10.90;99.90
1996;DHT22;38556;47.068;15.408;2023-05-10T01:34:07;10.80;99.90
1996;DHT22;38556;47.068;15.408;2023-05-10T01:36:40;11.00;99.90
1996;DHT22;38556;47.068;15.408;2023-05-10T01:39:14;11.00;99.90
1996;DHT22;38556;47.068;15.408;2023-05-10T01:41:49;11.00;99.90
1996;DHT22;38556;47.068;15.408;2023-05-10T01:44:26;10.70;99.90
1996;DHT22;38556;47.068;15.408;2023-05-10T01:47:01;10.50;99.90
1996;DHT22;38556;47.068;15.408;2023-05-10T01:49:39;10.50;99.90
1996;DHT22;38556;47.068;15.408;2023-05-10T01:52:09;10.50;99.90
1996;DHT22;38556;47.068;15.408;2023-05-10T01:54:39;10.40;99.90
1996;DHT22;38556;47.068;15.408;2023-05-10T01:57:09;10.60;99.90
1996;DHT22;38556;47.068;15.408;2023-05-10T01:59:39;10.70;99.90
1996;DHT22;38556;47.068;15.408;2023-05-10T02:02:08;10.70;99.90
1996;DHT22;38556;47.068;15.408;2023-05-10T02:04:40;10.50;99.90
1996;DHT22;38556;47.068;15.408;2023-05-10T02:07:08;10.30;99.90
1996;DHT22;38556;47.068;15.408;2023-05-10T02:09:37;10.20;99.90
1996;DHT22;38556;47.068;15.408;2023-05-10T02:12:06;10.30;99.90
1996;DHT22;38556;47.068;15.408;2023-05-10T02:14:35;10.20;99.90
1996;DHT22;38556;47.068;15.408;2023-05-10T02:17:05;9.90;99.90
1996;DHT22;38556;47.068;15.408;2023-05-10T02:19:34;9.90;99.90
1996;DHT22;38556;47.068;15.408;2023-05-10T02:22:04;10.10;99.90
1996;DHT22;38556;47.068;15.408;2023-05-10T02:24:32;10.10;99.90
1996;DHT22;38556;47.068;15.408;2023-05-10T02:27:02;10.30;99.90
1996;DHT22;38556;47.068;15.408;2023-05-10T02:29:31;10.20;99.90
1996;DHT22;38556;47.068;15.408;2023-05-10T02:32:00;9.90;99.90
1996;DHT22;38556;47.068;15.408;2023-05-10T02:34:28;10.00;99.90
1996;DHT22;38556;47.068;15.408;2023-05-10T02:36:56;10.00;99.90
1996;DHT22;38556;47.068;15.408;2023-05-10T02:39:25;10.10;99.90
1996;DHT22;38556;47.068;15.408;2023-05-10T02:41:55;10.10;99.90
1996;DHT22;38556;47.068;15.408;2023-05-10T02:44:23;10.00;99.90
1996;DHT22;38556;47.068;15.408;2023-05-10T02:46:54;10.10;99.90
1996;DHT22;38556;47.068;15.408;2023-05-10T02:49:22;10.10;99.90
1996;DHT22;38556;47.068;15.408;2023-05-10T02:51:53;10.40;99.90
1996;DHT22;38556;47.068;15.408;2023-05-10T02:54:27;10.20;99.90
1996;DHT22;38556;47.068;15.408;2023-05-10T02:56:58;10.30;99.90
1996;DHT22;38556;47.068;15.408;2023-05-10T02:59:26;10.30;99.90
1996;DHT22;38556;47.068;15.408;2023-05-10T03:01:54;10.30;99.90
1996;DHT22;38556;47.068;15.408;2023-05-10T03:04:21;10.20;99.90
1996;DHT22;38556;47.068;15.408;2023-05-10T03:06:48;10.10;99.90
1996;DHT22;38556;47.068;15.408;2023-05-10T03:09:15;10.10;99.90
1996;DHT22;38556;47.068;15.408;2023-05-10T03:11:55;10.10;99.90
1996;DHT22;38556;47.068;15.408;2023-05-10T03:14:34;10.10;99.90
1996;DHT22;38556;47.068;15.408;2023-05-10T03:17:11;10.20;99.90
1996;DHT22;38556;47.068;15.408;2023-05-10T03:19:45;10.40;99.90
1996;DHT22;38556;47.068;15.408;2023-05-10T03:22:21;10.30;99.90
1996;DHT22;38556;47.068;15.408;2023-05-10T03:24:53;10.40;99.90
1996;DHT22;38556;47.068;15.408;2023-05-10T03:27:22;10.40;99.90
1996;DHT22;38556;47.068;15.408;2023-05-10T03:29:52;10.30;99.90
1996;DHT22;38556;47.068;15.408;2023-05-10T03:32:20;10.40;99.90
1996;DHT22;38556;47.068;15.408;2023-05-10T03:34:47;10.20;99.90
1996;DHT22;38556;47.068;15.408;2023-05-10T03:37:14;10.10;99.90
1996;DHT22;38556;47.068;15.408;2023-05-10T03:39:41;10.10;99.90
1996;DHT22;38556;47.068;15.408;2023-05-10T03:42:09;10.20;99.90
1996;DHT22;38556;47.068;15.408;2023-05-10T03:44:38;10.20;99.90
1996;DHT22;38556;47.068;15.408;2023-05-10T03:47:06;10.20;99.90
1996;DHT22;38556;47.068;15.408;2023-05-10T03:49:33;10.20;99.90
1996;DHT22;38556;47.068;15.408;2023-05-10T03:52:00;10.10;99.90
1996;DHT22;38556;47.068;15.408;2023-05-10T03:54:28;10.10;99.90
1996;DHT22;38556;47.068;15.408;2023-05-10T03:56:55;10.20;99.90
1996;DHT22;38556;47.068;15.408;2023-05-10T03:59:22;10.20;99.90
1996;DHT22;38556;47.068;15.408;2023-05-10T04:01:51;10.10;99.90
1996;DHT22;38556;47.068;15.408;2023-05-10T04:04:18;9.90;99.90
1996;DHT22;38556;47.068;15.408;2023-05-10T04:06:47;9.90;99.90
1996;DHT22;38556;47.068;15.408;2023-05-10T04:09:14;10.00;99.90
1996;DHT22;38556;47.068;15.408;2023-05-10T04:11:43;9.80;99.90
1996;DHT22;38556;47.068;15.408;2023-05-10T04:14:10;9.90;99.90
1996;DHT22;38556;47.068;15.408;2023-05-10T04:16:37;9.70;99.90
1996;DHT22;38556;47.068;15.408;2023-05-10T04:19:05;9.80;99.90
1996;DHT22;38556;47.068;15.408;2023-05-10T04:21:33;9.90;99.90
1996;DHT22;38556;47.068;15.408;2023-05-10T04:24:00;9.60;99.90
1996;DHT22;38556;47.068;15.408;2023-05-10T04:26:27;9.80;99.90
1996;DHT22;38556;47.068;15.408;2023-05-10T04:28:55;9.60;99.90
1996;DHT22;38556;47.068;15.408;2023-05-10T04:31:22;9.40;99.90
1996;DHT22;38556;47.068;15.408;2023-05-10T04:33:49;9.40;99.90
1996;DHT22;38556;47.068;15.408;2023-05-10T04:36:18;9.50;99.90
1996;DHT22;38556;47.068;15.408;2023-05-10T04:38:45;9.70;99.90
1996;DHT22;38556;47.068;15.408;2023-05-10T04:41:12;9.80;99.90
1996;DHT22;38556;47.068;15.408;2023-05-10T04:43:40;10.00;99.90
1996;DHT22;38556;47.068;15.408;2023-05-10T04:46:07;10.00;99.90
1996;DHT22;38556;47.068;15.408;2023-05-10T04:48:34;9.90;99.90
1996;DHT22;38556;47.068;15.408;2023-05-10T04:51:01;10.00;99.90
1996;DHT22;38556;47.068;15.408;2023-05-10T04:53:30;10.00;99.90
1996;DHT22;38556;47.068;15.408;2023-05-10T04:55:58;9.90;99.90
1996;DHT22;38556;47.068;15.408;2023-05-10T04:58:25;10.10;99.90
1996;DHT22;38556;47.068;15.408;2023-05-10T05:00:52;10.20;99.90
1996;DHT22;38556;47.068;15.408;2023-05-10T05:03:19;10.30;99.90
1996;DHT22;38556;47.068;15.408;2023-05-10T05:05:47;10.10;99.90
1996;DHT22;38556;47.068;15.408;2023-05-10T05:08:14;10.20;99.90
1996;DHT22;38556;47.068;15.408;2023-05-10T05:10:42;10.40;99.90
1996;DHT22;38556;47.068;15.408;2023-05-10T05:13:12;10.60;99.90
1996;DHT22;38556;47.068;15.408;2023-05-10T05:15:39;10.60;99.90
1996;DHT22;38556;47.068;15.408;2023-05-10T05:18:06;10.70;99.90
1996;DHT22;38556;47.068;15.408;2023-05-10T05:20:33;10.60;99.90
1996;DHT22;38556;47.068;15.408;2023-05-10T05:23:00;10.40;99.90
1996;DHT22;38556;47.068;15.408;2023-05-10T05:25:28;10.60;99.90
1996;DHT22;38556;47.068;15.408;2023-05-10T05:27:56;10.70;99.90
1996;DHT22;38556;47.068;15.408;2023-05-10T05:30:24;10.90;99.90
1996;DHT22;38556;47.068;15.408;2023-05-10T05:32:51;11.00;99.90
1996;DHT22;38556;47.068;15.408;2023-05-10T05:35:19;11.10;99.90
1996;DHT22;38556;47.068;15.408;2023-05-10T05:37:46;11.30;99.90
1996;DHT22;38556;47.068;15.408;2023-05-10T05:40:13;11.40;99.90
1996;DHT22;38556;47.068;15.408;2023-05-10T05:42:41;11.50;99.90
1996;DHT22;38556;47.068;15.408;2023-05-10T05:45:10;11.50;99.90
1996;DHT22;38556;47.068;15.408;2023-05-10T05:47:39;11.70;99.90
1996;DHT22;38556;47.068;15.408;2023-05-10T05:50:06;11.80;99.90
1996;DHT22;38556;47.068;15.408;2023-05-10T05:52:34;12.10;99.90
1996;DHT22;38556;47.068;15.408;2023-05-10T05:55:01;12.10;99.90
1996;DHT22;38556;47.068;15.408;2023-05-10T05:57:29;12.30;99.90
1996;DHT22;38556;47.068;15.408;2023-05-10T05:59:56;12.30;99.90
1996;DHT22;38556;47.068;15.408;2023-05-10T06:02:25;12.50;99.90
1996;DHT22;38556;47.068;15.408;2023-05-10T06:04:52;12.60;99.90
1996;DHT22;38556;47.068;15.408;2023-05-10T06:07:20;12.70;99.90
1996;DHT22;38556;47.068;15.408;2023-05-10T06:09:47;12.70;99.90
1996;DHT22;38556;47.068;15.408;2023-05-10T06:12:14;12.70;99.90
1996;DHT22;38556;47.068;15.408;2023-05-10T06:14:41;12.60;99.90
1996;DHT22;38556;47.068;15.408;2023-05-10T06:17:09;12.70;99.90
1996;DHT22;38556;47.068;15.408;2023-05-10T06:19:37;12.80;99.90
1996;DHT22;38556;47.068;15.408;2023-05-10T06:22:05;13.00;99.90
1996;DHT22;38556;47.068;15.408;2023-05-10T06:24:32;12.90;99.90
1996;DHT22;38556;47.068;15.408;2023-05-10T06:27:00;12.90;99.90
1996;DHT22;38556;47.068;15.408;2023-05-10T06:29:27;12.80;99.90
1996;DHT22;38556;47.068;15.408;2023-05-10T06:31:55;12.70;99.90
1996;DHT22;38556;47.068;15.408;2023-05-10T06:34:22;12.70;99.90
1996;DHT22;38556;47.068;15.408;2023-05-10T06:36:51;13.00;99.90
1996;DHT22;38556;47.068;15.408;2023-05-10T06:39:18;13.00;99.90
1996;DHT22;38556;47.068;15.408;2023-05-10T06:41:46;13.00;99.90
1996;DHT22;38556;47.068;15.408;2023-05-10T06:44:13;13.10;99.90
1996;DHT22;38556;47.068;15.408;2023-05-10T06:46:40;13.10;99.90
1996;DHT22;38556;47.068;15.408;2023-05-10T06:49:08;13.00;99.90
1996;DHT22;38556;47.068;15.408;2023-05-10T06:51:36;13.20;99.90
1996;DHT22;38556;47.068;15.408;2023-05-10T06:54:04;13.30;99.90
1996;DHT22;38556;47.068;15.408;2023-05-10T06:56:33;13.50;99.90
1996;DHT22;38556;47.068;15.408;2023-05-10T06:59:00;13.60;99.90
1996;DHT22;38556;47.068;15.408;2023-05-10T07:01:27;13.70;99.90
1996;DHT22;38556;47.068;15.408;2023-05-10T07:03:54;13.80;99.90
1996;DHT22;38556;47.068;15.408;2023-05-10T07:06:22;14.10;99.90
1996;DHT22;38556;47.068;15.408;2023-05-10T07:08:49;13.90;99.90
1996;DHT22;38556;47.068;15.408;2023-05-10T07:11:18;14.00;99.90
1996;DHT22;38556;47.068;15.408;2023-05-10T07:13:45;14.00;99.90
1996;DHT22;38556;47.068;15.408;2023-05-10T07:16:12;14.00;99.90
1996;DHT22;38556;47.068;15.408;2023-05-10T07:18:39;14.10;99.90
1996;DHT22;38556;47.068;15.408;2023-05-10T07:21:07;14.20;99.90
1996;DHT22;38556;47.068;15.408;2023-05-10T07:23:34;14.30;99.90
1996;DHT22;38556;47.068;15.408;2023-05-10T07:26:02;14.40;99.90
1996;DHT22;38556;47.068;15.408;2023-05-10T07:28:30;14.40;99.90
1996;DHT22;38556;47.068;15.408;2023-05-10T07:30:58;14.40;99.90
1996;DHT22;38556;47.068;15.408;2023-05-10T07:33:25;14.50;99.90
1996;DHT22;38556;47.068;15.408;2023-05-10T07:35:52;14.70;99.90
1996;DHT22;38556;47.068;15.408;2023-05-10T07:38:19;14.60;99.90
1996;DHT22;38556;47.068;15.408;2023-05-10T07:40:47;14.70;99.90
1996;DHT22;38556;47.068;15.408;2023-05-10T07:43:14;14.60;99.90
1996;DHT22;38556;47.068;15.408;2023-05-10T07:45:43;14.70;99.90
1996;DHT22;38556;47.068;15.408;2023-05-10T07:48:10;14.70;99.90
1996;DHT22;38556;47.068;15.408;2023-05-10T07:50:37;14.70;99.20
1996;DHT22;38556;47.068;15.408;2023-05-10T07:53:04;14.70;99.50
1996;DHT22;38556;47.068;15.408;2023-05-10T07:55:32;14.70;99.50
1996;DHT22;38556;47.068;15.408;2023-05-10T07:57:59;14.50;98.50
1996;DHT22;38556;47.068;15.408;2023-05-10T08:00:28;14.50;98.60
1996;DHT22;38556;47.068;15.408;2023-05-10T08:02:56;14.50;99.00
1996;DHT22;38556;47.068;15.408;2023-05-10T08:05:24;14.60;99.30
1996;DHT22;38556;47.068;15.408;2023-05-10T08:07:51;14.70;99.20
1996;DHT22;38556;47.068;15.408;2023-05-10T08:10:18;14.90;99.30
1996;DHT22;38556;47.068;15.408;2023-05-10T08:12:46;15.00;99.50
1996;DHT22;38556;47.068;15.408;2023-05-10T08:15:13;15.00;99.10
1996;DHT22;38556;47.068;15.408;2023-05-10T08:17:40;15.00;98.50
1996;DHT22;38556;47.068;15.408;2023-05-10T08:20:10;15.00;98.90
1996;DHT22;38556;47.068;15.408;2023-05-10T08:22:39;15.10;98.60
1996;DHT22;38556;47.068;15.408;2023-05-10T08:25:06;15.00;98.40
1996;DHT22;38556;47.068;15.408;2023-05-10T08:27:34;15.10;98.70
1996;DHT22;38556;47.068;15.408;2023-05-10T08:30:01;15.40;98.70
1996;DHT22;38556;47.068;15.408;2023-05-10T08:32:28;15.40;98.90
1996;DHT22;38556;47.068;15.408;2023-05-10T08:34:55;15.40;98.40
1996;DHT22;38556;47.068;15.408;2023-05-10T08:37:24;15.40;97.50
1996;DHT22;38556;47.068;15.408;2023-05-10T08:39:51;15.60;97.40
1996;DHT22;38556;47.068;15.408;2023-05-10T08:42:20;15.70;97.20
1996;DHT22;38556;47.068;15.408;2023-05-10T08:44:49;15.80;97.00
1996;DHT22;38556;47.068;15.408;2023-05-10T08:47:18;15.50;96.30
1996;DHT22;38556;47.068;15.408;2023-05-10T08:49:47;15.60;96.90
1996;DHT22;38556;47.068;15.408;2023-05-10T08:52:15;15.60;96.70
1996;DHT22;38556;47.068;15.408;2023-05-10T08:54:44;15.50;96.40
1996;DHT22;38556;47.068;15.408;2023-05-10T08:57:12;15.60;96.30
1996;DHT22;38556;47.068;15.408;2023-05-10T08:59:39;15.80;95.40
1996;DHT22;38556;47.068;15.408;2023-05-10T09:02:10;15.80;94.50
1996;DHT22;38556;47.068;15.408;2023-05-10T09:04:38;16.00;94.30
1996;DHT22;38556;47.068;15.408;2023-05-10T09:07:06;16.20;93.30
1996;DHT22;38556;47.068;15.408;2023-05-10T09:09:33;16.00;93.10
1996;DHT22;38556;47.068;15.408;2023-05-10T09:12:03;15.90;93.20
1996;DHT22;38556;47.068;15.408;2023-05-10T09:14:31;16.00;93.50
1996;DHT22;38556;47.068;15.408;2023-05-10T09:17:01;15.90;92.40
1996;DHT22;38556;47.068;15.408;2023-05-10T09:19:28;16.00;92.80
1996;DHT22;38556;47.068;15.408;2023-05-10T09:21:56;16.10;92.70
1996;DHT22;38556;47.068;15.408;2023-05-10T09:24:26;16.10;93.40
1996;DHT22;38556;47.068;15.408;2023-05-10T09:26:54;16.20;92.90
1996;DHT22;38556;47.068;15.408;2023-05-10T09:29:24;16.40;92.70
1996;DHT22;38556;47.068;15.408;2023-05-10T09:31:52;16.30;92.70
1996;DHT22;38556;47.068;15.408;2023-05-10T09:34:22;16.40;92.50
1996;DHT22;38556;47.068;15.408;2023-05-10T09:36:56;16.00;92.50
1996;DHT22;38556;47.068;15.408;2023-05-10T09:39:33;16.10;93.00
1996;DHT22;38556;47.068;15.408;2023-05-10T09:42:03;16.40;92.80
1996;DHT22;38556;47.068;15.408;2023-05-10T09:44:32;16.30;92.10
1996;DHT22;38556;47.068;15.408;2023-05-10T09:47:00;16.40;92.10
1996;DHT22;38556;47.068;15.408;2023-05-10T09:49:28;16.30;92.20
1996;DHT22;38556;47.068;15.408;2023-05-10T09:52:03;16.30;92.00
1996;DHT22;38556;47.068;15.408;2023-05-10T09:54:31;16.50;92.60
1996;DHT22;38556;47.068;15.408;2023-05-10T09:56:58;16.50;91.50
1996;DHT22;38556;47.068;15.408;2023-05-10T09:59:28;16.70;92.40
1996;DHT22;38556;47.068;15.408;2023-05-10T10:01:57;16.60;91.70
1996;DHT22;38556;47.068;15.408;2023-05-10T10:04:26;16.70;91.90
1996;DHT22;38556;47.068;15.408;2023-05-10T10:07:01;16.70;91.40
1996;DHT22;38556;47.068;15.408;2023-05-10T10:09:29;16.70;91.50
1996;DHT22;38556;47.068;15.408;2023-05-10T10:11:56;16.70;91.30
1996;DHT22;38556;47.068;15.408;2023-05-10T10:14:25;16.90;91.70
1996;DHT22;38556;47.068;15.408;2023-05-10T10:16:52;17.20;91.30
1996;DHT22;38556;47.068;15.408;2023-05-10T10:19:22;17.10;91.40
1996;DHT22;38556;47.068;15.408;2023-05-10T10:21:50;17.20;91.90
1996;DHT22;38556;47.068;15.408;2023-05-10T10:24:17;17.10;92.10
1996;DHT22;38556;47.068;15.408;2023-05-10T10:26:45;17.00;92.30
1996;DHT22;38556;47.068;15.408;2023-05-10T10:29:23;17.10;93.50
1996;DHT22;38556;47.068;15.408;2023-05-10T10:31:57;17.70;99.90
1996;DHT22;38556;47.068;15.408;2023-05-10T10:34:30;17.90;97.20
1996;DHT22;38556;47.068;15.408;2023-05-10T10:36:58;18.20;98.80
1996;DHT22;38556;47.068;15.408;2023-05-10T10:39:31;18.40;96.10
1996;DHT22;38556;47.068;15.408;2023-05-10T10:41:59;18.60;96.70
1996;DHT22;38556;47.068;15.408;2023-05-10T10:44:34;18.80;95.10
1996;DHT22;38556;47.068;15.408;2023-05-10T10:47:07;18.80;93.20
1996;DHT22;38556;47.068;15.408;2023-05-10T10:49:43;19.10;94.90
1996;DHT22;38556;47.068;15.408;2023-05-10T10:52:22;19.30;92.70
1996;DHT22;38556;47.068;15.408;2023-05-10T10:54:54;19.10;92.00
1996;DHT22;38556;47.068;15.408;2023-05-10T10:57:25;19.10;91.10
1996;DHT22;38556;47.068;15.408;2023-05-10T11:00:18;19.00;91.00
1996;DHT22;38556;47.068;15.408;2023-05-10T11:02:46;18.70;90.40
1996;DHT22;38556;47.068;15.408;2023-05-10T11:05:40;18.70;90.80
1996;DHT22;38556;47.068;15.408;2023-05-10T11:08:13;19.00;90.40
1996;DHT22;38556;47.068;15.408;2023-05-10T11:10:53;19.00;89.80
1996;DHT22;38556;47.068;15.408;2023-05-10T11:13:31;19.00;89.20
1996;DHT22;38556;47.068;15.408;2023-05-10T11:15:59;18.50;90.40
1996;DHT22;38556;47.068;15.408;2023-05-10T11:18:37;18.50;91.20
1996;DHT22;38556;47.068;15.408;2023-05-10T11:21:08;19.00;93.30
1996;DHT22;38556;47.068;15.408;2023-05-10T11:23:48;19.30;93.10
1996;DHT22;38556;47.068;15.408;2023-05-10T11:26:17;19.00;90.30
1996;DHT22;38556;47.068;15.408;2023-05-10T11:28:45;18.70;91.00
1996;DHT22;38556;47.068;15.408;2023-05-10T11:31:14;18.40;90.00
1996;DHT22;38556;47.068;15.408;2023-05-10T11:36:16;19.10;91.00
1996;DHT22;38556;47.068;15.408;2023-05-10T11:38:44;19.20;90.00
1996;DHT22;38556;47.068;15.408;2023-05-10T11:41:12;19.30;89.20
1996;DHT22;38556;47.068;15.408;2023-05-10T11:43:40;19.20;90.40
1996;DHT22;38556;47.068;15.408;2023-05-10T11:46:09;19.10;90.00
1996;DHT22;38556;47.068;15.408;2023-05-10T11:48:38;18.90;88.20
1996;DHT22;38556;47.068;15.408;2023-05-10T11:51:07;18.90;89.60
1996;DHT22;38556;47.068;15.408;2023-05-10T11:53:35;19.10;89.80
1996;DHT22;38556;47.068;15.408;2023-05-10T11:56:05;19.00;89.10
1996;DHT22;38556;47.068;15.408;2023-05-10T11:58:32;18.70;87.90
1996;DHT22;38556;47.068;15.408;2023-05-10T12:01:00;18.40;88.50
1996;DHT22;38556;47.068;15.408;2023-05-10T12:03:28;18.50;89.00
1996;DHT22;38556;47.068;15.408;2023-05-10T12:05:56;18.60;89.30
1996;DHT22;38556;47.068;15.408;2023-05-10T12:08:25;18.70;88.60
1996;DHT22;38556;47.068;15.408;2023-05-10T12:11:08;18.60;87.90
1996;DHT22;38556;47.068;15.408;2023-05-10T12:13:37;18.60;88.10
1996;DHT22;38556;47.068;15.408;2023-05-10T12:16:16;18.40;89.20
1996;DHT22;38556;47.068;15.408;2023-05-10T12:18:44;18.30;89.40
1996;DHT22;38556;47.068;15.408;2023-05-10T12:21:12;18.20;89.30
1996;DHT22;38556;47.068;15.408;2023-05-10T12:23:39;18.30;88.70
1996;DHT22;38556;47.068;15.408;2023-05-10T12:26:09;18.10;87.80
1996;DHT22;38556;47.068;15.408;2023-05-10T12:28:37;18.10;88.50
1996;DHT22;38556;47.068;15.408;2023-05-10T12:31:05;18.10;88.70
1996;DHT22;38556;47.068;15.408;2023-05-10T12:33:36;18.10;89.30
1996;DHT22;38556;47.068;15.408;2023-05-10T12:36:08;18.00;88.60
1996;DHT22;38556;47.068;15.408;2023-05-10T12:38:36;17.70;87.80
1996;DHT22;38556;47.068;15.408;2023-05-10T12:41:05;17.80;88.70
1996;DHT22;38556;47.068;15.408;2023-05-10T12:43:35;17.80;89.30
1996;DHT22;38556;47.068;15.408;2023-05-10T12:46:07;17.90;87.70
1996;DHT22;38556;47.068;15.408;2023-05-10T12:48:34;17.80;88.10
1996;DHT22;38556;47.068;15.408;2023-05-10T12:51:03;17.80;88.10
1996;DHT22;38556;47.068;15.408;2023-05-10T12:53:31;17.80;88.30
1996;DHT22;38556;47.068;15.408;2023-05-10T12:55:58;17.70;87.90
1996;DHT22;38556;47.068;15.408;2023-05-10T12:58:25;17.70;88.40
1996;DHT22;38556;47.068;15.408;2023-05-10T13:00:55;17.80;88.80
1996;DHT22;38556;47.068;15.408;2023-05-10T13:03:22;17.80;89.50
1996;DHT22;38556;47.068;15.408;2023-05-10T13:05:50;17.50;88.30
1996;DHT22;38556;47.068;15.408;2023-05-10T13:10:45;17.30;89.10
1996;DHT22;38556;47.068;15.408;2023-05-10T13:13:12;17.20;89.70
1996;DHT22;38556;47.068;15.408;2023-05-10T13:15:40;17.30;89.40
1996;DHT22;38556;47.068;15.408;2023-05-10T13:18:08;17.40;88.60
1996;DHT22;38556;47.068;15.408;2023-05-10T13:20:36;17.30;88.00
1996;DHT22;38556;47.068;15.408;2023-05-10T13:23:03;18.10;89.10
1996;DHT22;38556;47.068;15.408;2023-05-10T13:25:31;17.20;88.40
1996;DHT22;38556;47.068;15.408;2023-05-10T13:27:59;17.30;88.70
1996;DHT22;38556;47.068;15.408;2023-05-10T13:30:27;17.40;89.50
1996;DHT22;38556;47.068;15.408;2023-05-10T13:32:54;17.40;89.00
1996;DHT22;38556;47.068;15.408;2023-05-10T13:37:51;17.40;90.40
1996;DHT22;38556;47.068;15.408;2023-05-10T13:40:19;17.30;90.50
1996;DHT22;38556;47.068;15.408;2023-05-10T13:42:46;17.30;90.50
1996;DHT22;38556;47.068;15.408;2023-05-10T13:45:13;17.30;90.40
1996;DHT22;38556;47.068;15.408;2023-05-10T13:47:41;17.40;90.10
1996;DHT22;38556;47.068;15.408;2023-05-10T13:50:08;17.40;90.40
1996;DHT22;38556;47.068;15.408;2023-05-10T13:52:37;17.40;89.80
1996;DHT22;38556;47.068;15.408;2023-05-10T13:55:04;17.40;90.30
1996;DHT22;38556;47.068;15.408;2023-05-10T13:57:32;17.30;90.10
1996;DHT22;38556;47.068;15.408;2023-05-10T14:00:01;17.20;90.60
1996;DHT22;38556;47.068;15.408;2023-05-10T14:02:28;17.30;91.10
1996;DHT22;38556;47.068;15.408;2023-05-10T14:04:56;17.20;90.40
1996;DHT22;38556;47.068;15.408;2023-05-10T14:07:23;17.20;90.30
1996;DHT22;38556;47.068;15.408;2023-05-10T14:09:52;17.20;90.50
1996;DHT22;38556;47.068;15.408;2023-05-10T14:12:19;17.30;90.80
1996;DHT22;38556;47.068;15.408;2023-05-10T14:14:46;17.30;90.40
1996;DHT22;38556;47.068;15.408;2023-05-10T14:17:13;17.40;90.30
1996;DHT22;38556;47.068;15.408;2023-05-10T14:19:41;17.40;90.40
1996;DHT22;38556;47.068;15.408;2023-05-10T14:22:08;17.50;90.80
1996;DHT22;38556;47.068;15.408;2023-05-10T14:24:36;17.50;91.10
1996;DHT22;38556;47.068;15.408;2023-05-10T14:27:04;17.30;90.20
1996;DHT22;38556;47.068;15.408;2023-05-10T14:29:32;17.30;90.50
1996;DHT22;38556;47.068;15.408;2023-05-10T14:31:59;17.00;90.30
1996;DHT22;38556;47.068;15.408;2023-05-10T14:34:27;17.20;90.20
1996;DHT22;38556;47.068;15.408;2023-05-10T14:36:54;17.30;90.10
1996;DHT22;38556;47.068;15.408;2023-05-10T14:39:22;17.40;90.40
1996;DHT22;38556;47.068;15.408;2023-05-10T14:41:49;17.40;90.00
1996;DHT22;38556;47.068;15.408;2023-05-10T14:44:19;17.60;90.10
1996;DHT22;38556;47.068;15.408;2023-05-10T14:46:46;17.40;88.90
1996;DHT22;38556;47.068;15.408;2023-05-10T14:49:14;17.30;89.10
1996;DHT22;38556;47.068;15.408;2023-05-10T14:51:41;17.50;89.30
1996;DHT22;38556;47.068;15.408;2023-05-10T14:54:09;17.50;89.00
1996;DHT22;38556;47.068;15.408;2023-05-10T14:56:36;17.70;89.20
1996;DHT22;38556;47.068;15.408;2023-05-10T14:59:04;17.70;89.90
1996;DHT22;38556;47.068;15.408;2023-05-10T15:01:33;17.70;90.00
1996;DHT22;38556;47.068;15.408;2023-05-10T15:04:03;17.80;89.60
1996;DHT22;38556;47.068;15.408;2023-05-10T15:06:31;17.70;90.20
1996;DHT22;38556;47.068;15.408;2023-05-10T15:09:00;17.70;88.80
1996;DHT22;38556;47.068;15.408;2023-05-10T15:11:27;17.70;88.50
1996;DHT22;38556;47.068;15.408;2023-05-10T15:13:55;17.80;87.90
1996;DHT22;38556;47.068;15.408;2023-05-10T15:16:22;17.80;88.50
1996;DHT22;38556;47.068;15.408;2023-05-10T15:18:51;17.90;88.90
1996;DHT22;38556;47.068;15.408;2023-05-10T15:21:18;17.90;89.00
1996;DHT22;38556;47.068;15.408;2023-05-10T15:26:13;17.90;87.40
1996;DHT22;38556;47.068;15.408;2023-05-10T15:28:40;17.90;85.30
1996;DHT22;38556;47.068;15.408;2023-05-10T15:31:08;17.90;85.40
1996;DHT22;38556;47.068;15.408;2023-05-10T15:33:36;18.00;85.80
1996;DHT22;38556;47.068;15.408;2023-05-10T15:36:06;18.20;86.00
1996;DHT22;38556;47.068;15.408;2023-05-10T15:38:33;18.20;85.90
1996;DHT22;38556;47.068;15.408;2023-05-10T15:41:00;18.10;85.50
1996;DHT22;38556;47.068;15.408;2023-05-10T15:43:27;18.20;86.40
1996;DHT22;38556;47.068;15.408;2023-05-10T15:45:55;18.30;89.10
1996;DHT22;38556;47.068;15.408;2023-05-10T15:48:22;18.50;87.60
1996;DHT22;38556;47.068;15.408;2023-05-10T15:50:50;18.80;89.40
1996;DHT22;38556;47.068;15.408;2023-05-10T15:53:18;18.90;88.80
1996;DHT22;38556;47.068;15.408;2023-05-10T15:55:46;19.00;87.20